메인 페이지
METAR-TAF:

METAR-TAF

공항 :

수폴스, 사우스다코타, 미국

위도: 43-34-37N, 경도: 096-45-13W, 고도: 435m

현재 날씨관측

예보는 53분 전, 12:56시(UTC)에 발표되었습니다.
북북서6kt
온도 12°C
습도 82%
기압 1005 hPa
시정: 16.1km
고도 14000ft 상공 구름 조금

METAR: KFSD 071256Z 33006KT 10SM FEW140 12/09 A2969 RMK AO2 SLP053 T01170094

시각: 08:49 (13:49 UTC)

예보

예보는 2 시간 29분 전, 11:20시(UTC)에 발표되었습니다.
예보 대상 시간: 07일 12시부터 08일 12시까지 (UTC)
여러 방향의 바람 5kt
시정: 10km
고도 14000ft 상공 구름 보통
07일 1400시부터 (UTC)
북서9kt
시정: 10km
고도 18000ft 상공 구름 보통
07일 1800시부터 (UTC)
9kt
시정: 10km
고도 25000ft 상공 구름 조금
08일 0300시부터 (UTC)
kt
시정: 10km
맑음

TAF: KFSD 071120Z 0712/0812 VRB05KT P6SM SCT140 FM071400 32009KT P6SM SCT180 FM071800 35009KT P6SM FEW250 FM080300 00000KT P6SM SKC

4,000개 이상의 공항 관측 자료 및 예보 (METAR 및 TAF 보고).

지도상에서 검색 가능한 기상관측소가 노란 점과 빨간 점으로 표시되어 있습니다.

기상관측소 명을 보려면 표시 위로 마우스를 이동하세요.

날씨 관측과 예보를 보려면 클릭하세요.

지도 변경 : 확대하려면 엑스 표시가 있는 녹색 버튼, 축소하려면 빼기 표시가 있는 녹색 버튼, 다음 페이지의 지도를 보려면 녹색 화살표를 클릭하세요.


METAR-TAF: